createdAt,value
2022-08-25T00:01:27.545Z,101747.22
2022-08-25T00:03:59.030Z,101748.03
2022-08-25T00:06:26.220Z,101743.34
2022-08-25T00:08:52.721Z,101741.97
2022-08-25T00:11:23.052Z,101740.88
2022-08-25T00:13:54.030Z,101740.88
2022-08-25T00:16:22.154Z,101740.88
2022-08-25T00:18:52.373Z,101741.66
2022-08-25T00:21:21.331Z,101738.09
2022-08-25T00:23:48.084Z,101733.13
2022-08-25T00:26:15.622Z,101729.53
2022-08-25T00:28:43.113Z,101731.47
2022-08-25T00:31:15.005Z,101725.69
2022-08-25T00:33:43.100Z,101730.91
2022-08-25T00:36:12.132Z,101722.09
2022-08-25T00:38:44.011Z,101718.00
2022-08-25T00:41:12.948Z,101727.63
2022-08-25T00:43:42.360Z,101720.97
2022-08-25T00:46:10.144Z,101723.44
2022-08-25T00:48:40.304Z,101717.38
2022-08-25T00:51:09.805Z,101722.00
2022-08-25T00:53:36.562Z,101725.03
2022-08-25T00:56:03.622Z,101717.59
2022-08-25T00:58:32.310Z,101714.53
2022-08-25T01:00:58.760Z,101714.19
2022-08-25T01:03:33.141Z,101715.78
2022-08-25T01:06:03.882Z,101715.53
2022-08-25T01:08:32.466Z,101715.28
2022-08-25T01:11:02.528Z,101709.50
2022-08-25T01:13:34.204Z,101709.47
2022-08-25T01:16:03.957Z,101702.56
2022-08-25T01:18:43.167Z,101695.41
2022-08-25T01:21:09.648Z,101709.16
2022-08-25T01:23:36.172Z,101701.19
2022-08-25T01:26:41.219Z,101698.38
2022-08-25T01:29:21.134Z,101703.31
2022-08-25T01:31:52.457Z,101700.22
2022-08-25T01:34:19.841Z,101702.97
2022-08-25T01:36:46.277Z,101693.41
2022-08-25T01:39:14.426Z,101705.28
2022-08-25T01:41:48.662Z,101697.56
2022-08-25T01:44:18.499Z,101704.75
2022-08-25T01:46:45.071Z,101695.41
2022-08-25T01:49:11.556Z,101700.09
2022-08-25T01:51:44.184Z,101698.72
2022-08-25T01:54:10.701Z,101696.81
2022-08-25T01:56:37.117Z,101685.28
2022-08-25T01:59:03.545Z,101685.28
2022-08-25T02:01:30.415Z,101682.50
2022-08-25T02:03:57.526Z,101683.59
2022-08-25T02:06:29.821Z,101684.94
2022-08-25T02:09:00.970Z,101679.34
2022-08-25T02:11:30.446Z,101683.72
2022-08-25T02:13:56.900Z,101679.66
2022-08-25T02:16:28.322Z,101680.81
2022-08-25T02:18:56.370Z,101682.47
2022-08-25T02:21:23.225Z,101681.09
2022-08-25T02:23:49.728Z,101677.78
2022-08-25T02:26:19.081Z,101673.38
2022-08-25T02:28:47.418Z,101681.63
2022-08-25T02:31:14.557Z,101679.88
2022-08-25T02:33:41.426Z,101674.06
2022-08-25T02:36:08.530Z,101677.41
2022-08-25T02:38:36.708Z,101666.66
2022-08-25T02:41:12.542Z,101671.88
2022-08-25T02:43:41.403Z,101665.78
2022-08-25T02:46:09.155Z,101666.06
2022-08-25T02:48:36.652Z,101661.63
2022-08-25T02:51:04.000Z,101666.88
2022-08-25T02:53:30.509Z,101664.38
2022-08-25T02:55:56.921Z,101656.69
2022-08-25T02:58:23.866Z,101652.81
2022-08-25T03:00:50.421Z,101657.72
2022-08-25T03:03:18.809Z,101646.69
2022-08-25T03:05:45.726Z,101655.44
2022-08-25T03:08:12.429Z,101650.44
2022-08-25T03:10:39.223Z,101647.97
2022-08-25T03:13:05.979Z,101636.13
2022-08-25T03:15:32.969Z,101638.56
2022-08-25T03:18:03.299Z,101636.63
2022-08-25T03:20:30.176Z,101628.63
2022-08-25T03:22:57.020Z,101631.13
2022-08-25T03:25:42.016Z,101627.81
2022-08-25T03:28:08.783Z,101627.25
2022-08-25T03:30:35.260Z,101621.75
2022-08-25T03:33:01.902Z,101622.00
2022-08-25T03:35:28.350Z,101620.63
2022-08-25T03:37:58.979Z,101617.06
2022-08-25T03:40:26.250Z,101611.28
2022-08-25T03:42:54.083Z,101612.69
2022-08-25T03:45:20.823Z,101604.69
2022-08-25T03:47:49.449Z,101603.03
2022-08-25T03:50:17.489Z,101603.31
2022-08-25T03:52:43.982Z,101604.13
2022-08-25T03:55:12.629Z,101610.72
2022-08-25T03:57:39.348Z,101601.91
2022-08-25T04:00:08.385Z,101603.81
2022-08-25T04:02:39.300Z,101591.69
2022-08-25T04:05:06.277Z,101601.59
2022-08-25T04:07:32.709Z,101592.53
2022-08-25T04:09:59.131Z,101581.81
2022-08-25T04:12:25.577Z,101584.56
2022-08-25T04:14:52.021Z,101576.00
2022-08-25T04:17:18.933Z,101575.69
2022-08-25T04:19:45.468Z,101582.28
2022-08-25T04:22:12.023Z,101582.53
2022-08-25T04:24:40.303Z,101576.22
2022-08-25T04:27:06.825Z,101578.94
2022-08-25T04:29:33.680Z,101568.75
2022-08-25T04:32:00.331Z,101570.91
2022-08-25T04:34:30.742Z,101564.31
2022-08-25T04:37:03.321Z,101569.22
2022-08-25T04:39:30.265Z,101565.94
2022-08-25T04:41:57.386Z,101576.09
2022-08-25T04:44:23.794Z,101573.59
2022-08-25T04:46:50.411Z,101576.91
2022-08-25T04:49:16.824Z,101569.22
2022-08-25T04:51:43.292Z,101574.72
2022-08-25T04:54:13.169Z,101569.22
2022-08-25T04:56:41.075Z,101571.72
2022-08-25T04:59:13.591Z,101570.66
2022-08-25T05:01:42.253Z,101569.56
2022-08-25T05:04:14.653Z,101569.81
2022-08-25T05:06:54.847Z,101578.28
2022-08-25T05:09:21.855Z,101573.06
2022-08-25T05:11:48.624Z,101580.72
2022-08-25T05:14:18.109Z,101583.47
2022-08-25T05:16:45.166Z,101586.22
2022-08-25T05:19:11.709Z,101585.66
2022-08-25T05:21:38.271Z,101588.41
2022-08-25T05:24:04.821Z,101585.59
2022-08-25T05:26:32.949Z,101585.28
2022-08-25T05:29:01.987Z,101583.94
2022-08-25T05:31:28.776Z,101583.41
2022-08-25T05:33:56.449Z,101578.75
2022-08-25T05:36:24.359Z,101582.31
2022-08-25T05:38:50.910Z,101586.75
2022-08-25T05:41:20.398Z,101587.81
2022-08-25T05:43:48.840Z,101587.25
2022-08-25T05:46:18.128Z,101591.94
2022-08-25T05:48:44.850Z,101591.59
2022-08-25T05:51:13.222Z,101590.78
2022-08-25T05:53:42.182Z,101603.69
2022-08-25T05:56:09.840Z,101592.09
2022-08-25T05:58:36.569Z,101588.28
2022-08-25T06:01:22.495Z,101589.94
2022-08-25T06:03:49.894Z,101593.25
2022-08-25T06:06:16.478Z,101589.13
2022-08-25T06:08:44.673Z,101588.03
2022-08-25T06:11:12.559Z,101585.28
2022-08-25T06:13:39.482Z,101586.66
2022-08-25T06:16:06.540Z,101595.50
2022-08-25T06:18:33.057Z,101596.06
2022-08-25T06:20:59.476Z,101591.41
2022-08-25T06:23:25.891Z,101585.97
2022-08-25T06:25:53.934Z,101582.41
2022-08-25T06:28:21.009Z,101579.66
2022-08-25T06:30:47.704Z,101582.41
2022-08-25T06:33:14.640Z,101587.63
2022-08-25T06:35:43.486Z,101583.53
2022-08-25T06:38:10.398Z,101588.22
2022-08-25T06:40:37.834Z,101596.63
2022-08-25T06:43:08.686Z,101590.06
2022-08-25T06:45:35.576Z,101591.69
2022-08-25T06:48:02.100Z,101588.44
2022-08-25T06:50:28.618Z,101586.53
2022-08-25T06:52:55.098Z,101586.88
2022-08-25T06:55:21.612Z,101588.00
2022-08-25T06:57:48.119Z,101581.75
2022-08-25T07:00:14.829Z,101579.31
2022-08-25T07:02:42.207Z,101584.56
2022-08-25T07:05:13.252Z,101584.88
2022-08-25T07:07:43.686Z,101578.84
2022-08-25T07:10:10.868Z,101584.41
2022-08-25T07:12:37.317Z,101589.34
2022-08-25T07:15:19.487Z,101581.13
2022-08-25T07:17:47.036Z,101585.00
2022-08-25T07:20:14.063Z,101589.47
2022-08-25T07:22:41.322Z,101587.06
2022-08-25T07:25:09.131Z,101588.75
2022-08-25T07:27:35.595Z,101584.66
2022-08-25T07:30:04.275Z,101581.94
2022-08-25T07:32:30.831Z,101577.84
2022-08-25T07:35:15.343Z,101578.19
2022-08-25T07:37:49.454Z,101581.00
2022-08-25T07:40:23.313Z,101577.19
2022-08-25T07:42:52.649Z,101579.41
2022-08-25T07:45:21.101Z,101587.69
2022-08-25T07:47:48.032Z,101576.72
2022-08-25T07:50:18.235Z,101581.72
2022-08-25T07:52:44.661Z,101573.50
2022-08-25T07:55:20.141Z,101572.44
2022-08-25T07:57:48.945Z,101574.38
2022-08-25T08:00:20.398Z,101568.94
2022-08-25T08:02:46.956Z,101581.91
2022-08-25T08:05:14.428Z,101581.72
2022-08-25T08:07:43.042Z,101580.59
2022-08-25T08:10:42.173Z,101577.63
2022-08-25T08:12:59.779Z,101571.56
2022-08-25T08:15:29.710Z,101572.41
2022-08-25T08:17:58.002Z,101580.16
2022-08-25T08:20:25.046Z,101574.94
2022-08-25T08:22:51.967Z,101572.19
2022-08-25T08:25:18.730Z,101564.78
2022-08-25T08:27:48.734Z,101568.09
2022-08-25T08:30:15.249Z,101560.94
2022-08-25T08:33:08.576Z,101560.13
2022-08-25T08:35:28.503Z,101563.72
2022-08-25T08:37:54.930Z,101558.50
2022-08-25T08:40:21.977Z,101562.91
2022-08-25T08:43:06.390Z,101559.88
2022-08-25T08:45:43.899Z,101558.50
2022-08-25T08:48:38.232Z,101554.66
2022-08-25T08:51:24.490Z,101554.94
2022-08-25T08:54:15.532Z,101557.97
2022-08-25T08:56:48.189Z,101558.50
2022-08-25T08:59:22.171Z,101562.34
2022-08-25T09:02:00.545Z,101557.13
2022-08-25T09:04:37.366Z,101553.50
2022-08-25T09:07:10.879Z,101559.81
2022-08-25T09:09:41.841Z,101550.75
2022-08-25T09:12:41.223Z,101562.84
2022-08-25T09:15:57.534Z,101560.03
2022-08-25T09:18:51.237Z,101559.22
2022-08-25T09:21:58.130Z,101564.41
2022-08-25T09:24:46.924Z,101564.91
2022-08-25T09:27:28.834Z,101555.25
2022-08-25T09:30:12.484Z,101554.38
2022-08-25T09:32:48.672Z,101554.91
2022-08-25T09:35:23.759Z,101551.84
2022-08-25T09:37:56.789Z,101555.16
2022-08-25T09:40:25.720Z,101552.41
2022-08-25T09:42:57.973Z,101541.59
2022-08-25T09:45:42.373Z,101545.91
2022-08-25T09:48:22.798Z,101540.31
2022-08-25T09:50:51.659Z,101536.63
2022-08-25T09:53:21.760Z,101539.31
2022-08-25T09:56:05.828Z,101529.41
2022-08-25T09:58:32.781Z,101533.59
2022-08-25T10:01:18.319Z,101534.41
2022-08-25T10:03:57.088Z,101530.41
2022-08-25T10:06:25.219Z,101525.09
2022-08-25T10:08:57.469Z,101522.22
2022-08-25T10:11:41.585Z,101520.19
2022-08-25T10:14:32.650Z,101521.78
2022-08-25T10:17:33.639Z,101520.63
2022-08-25T10:20:20.974Z,101508.69
2022-08-25T10:22:50.601Z,101512.53
2022-08-25T10:25:26.800Z,101510.53
2022-08-25T10:28:05.777Z,101520.13
2022-08-25T10:30:51.303Z,101511.31
2022-08-25T10:33:36.188Z,101509.28
2022-08-25T10:36:21.586Z,101509.22
2022-08-25T10:38:58.020Z,101510.75
2022-08-25T10:42:00.606Z,101499.59
2022-08-25T10:45:00.732Z,101499.91
2022-08-25T10:47:52.168Z,101491.91
2022-08-25T10:50:24.744Z,101484.91
2022-08-25T10:53:39.734Z,101487.50
2022-08-25T10:56:22.406Z,101480.91
2022-08-25T10:59:01.613Z,101481.41
2022-08-25T11:01:43.722Z,101467.78
2022-08-25T11:04:28.443Z,101470.56
2022-08-25T11:07:39.579Z,101469.13
2022-08-25T11:10:37.666Z,101465.31
2022-08-25T11:13:11.248Z,101459.88
2022-08-25T11:16:15.977Z,101461.38
2022-08-25T11:19:05.544Z,101460.31
2022-08-25T11:21:51.190Z,101460.06
2022-08-25T11:24:36.456Z,101459.75
2022-08-25T11:27:06.448Z,101465.25
2022-08-25T11:29:37.961Z,101447.34
2022-08-25T11:32:06.425Z,101451.03
2022-08-25T11:34:36.346Z,101457.50
2022-08-25T11:37:28.726Z,101451.16
2022-08-25T11:40:36.909Z,101458.41
2022-08-25T11:43:12.224Z,101453.38
2022-08-25T11:46:03.842Z,101458.09
2022-08-25T11:48:59.134Z,101453.31
2022-08-25T11:51:47.459Z,101447.31
2022-08-25T11:54:19.697Z,101445.19
2022-08-25T11:57:00.621Z,101443.72
2022-08-25T11:59:50.216Z,101436.13
2022-08-25T12:02:42.793Z,101430.25
2022-08-25T12:05:41.197Z,101437.28
2022-08-25T12:08:25.985Z,101426.56
2022-08-25T12:10:54.118Z,101426.34
2022-08-25T12:13:41.161Z,101428.53
2022-08-25T12:16:36.693Z,101419.59
2022-08-25T12:19:38.132Z,101418.06
2022-08-25T12:22:04.515Z,101422.69
2022-08-25T12:24:47.546Z,101425.88
2022-08-25T12:27:29.001Z,101426.38
2022-08-25T12:30:31.071Z,101426.59
2022-08-25T12:33:07.490Z,101427.25
2022-08-25T12:35:51.458Z,101425.19
2022-08-25T12:38:30.348Z,101427.34
2022-08-25T12:41:08.689Z,101422.50
2022-08-25T12:43:42.419Z,101419.13
2022-08-25T12:46:21.064Z,101414.59
2022-08-25T12:49:25.974Z,101413.47
2022-08-25T12:52:00.374Z,101410.56
2022-08-25T12:54:47.578Z,101411.59
2022-08-25T12:57:29.936Z,101401.00
2022-08-25T12:59:59.489Z,101410.75
2022-08-25T13:02:53.291Z,101406.84
2022-08-25T13:05:57.465Z,101408.88
2022-08-25T13:08:47.039Z,101408.25
2022-08-25T13:11:22.303Z,101411.34
2022-08-25T13:14:00.629Z,101413.41
2022-08-25T13:16:29.994Z,101400.22
2022-08-25T13:18:59.239Z,101403.00
2022-08-25T13:21:41.732Z,101398.47
2022-08-25T13:24:31.795Z,101398.47
2022-08-25T13:27:18.269Z,101398.97
2022-08-25T13:29:55.846Z,101390.81
2022-08-25T13:32:35.660Z,101389.06
2022-08-25T13:35:28.913Z,101387.63
2022-08-25T13:38:19.447Z,101387.28
2022-08-25T13:40:46.021Z,101384.38
2022-08-25T13:43:15.067Z,101379.84
2022-08-25T13:45:48.043Z,101376.94
2022-08-25T13:48:33.485Z,101371.69
2022-08-25T13:51:31.351Z,101378.19
2022-08-25T13:54:08.295Z,101371.50
2022-08-25T13:56:40.913Z,101362.81
2022-08-25T13:59:25.612Z,101368.66
2022-08-25T14:01:54.222Z,101367.03
2022-08-25T14:04:51.093Z,101368.84
2022-08-25T14:07:21.050Z,101373.78
2022-08-25T14:10:03.758Z,101364.63
2022-08-25T14:12:46.803Z,101360.84
2022-08-25T14:15:16.260Z,101360.84
2022-08-25T14:18:04.866Z,101355.78
2022-08-25T14:20:33.289Z,101361.03
2022-08-25T14:23:09.787Z,101351.56
2022-08-25T14:25:36.853Z,101345.19
2022-08-25T14:28:14.700Z,101347.31
2022-08-25T14:30:46.598Z,101354.81
2022-08-25T14:33:15.021Z,101345.38
2022-08-25T14:35:45.223Z,101343.28
2022-08-25T14:38:13.755Z,101353.56
2022-08-25T14:40:40.443Z,101339.16
2022-08-25T14:43:10.461Z,101344.91
2022-08-25T14:45:41.505Z,101334.59
2022-08-25T14:48:12.930Z,101335.94
2022-08-25T14:50:41.894Z,101336.91
2022-08-25T14:53:11.002Z,101333.13
2022-08-25T14:55:38.708Z,101332.78
2022-08-25T14:58:06.810Z,101336.09
2022-08-25T15:00:37.236Z,101348.63
2022-08-25T15:03:03.908Z,101347.31
2022-08-25T15:05:31.758Z,101342.69
2022-08-25T15:08:16.748Z,101339.94
2022-08-25T15:10:43.419Z,101334.44
2022-08-25T15:13:10.764Z,101334.94
2022-08-25T15:15:40.175Z,101342.16
2022-08-25T15:18:20.431Z,101337.72
2022-08-25T15:20:47.002Z,101339.06
2022-08-25T15:23:18.370Z,101339.88
2022-08-25T15:25:47.551Z,101337.72
2022-08-25T15:28:17.093Z,101332.50
2022-08-25T15:30:45.928Z,101332.09
2022-08-25T15:33:13.394Z,101327.69
2022-08-25T15:35:40.224Z,101328.13
2022-08-25T15:38:08.024Z,101326.34
2022-08-25T15:40:37.347Z,101331.91
2022-08-25T15:43:03.968Z,101325.06
2022-08-25T15:45:31.387Z,101324.84
2022-08-25T15:47:57.956Z,101327.09
2022-08-25T15:50:26.192Z,101321.06
2022-08-25T15:52:53.126Z,101319.22
2022-08-25T15:55:19.979Z,101322.28
2022-08-25T15:57:47.780Z,101324.56
2022-08-25T16:00:17.975Z,101329.59
2022-08-25T16:02:45.534Z,101333.94
2022-08-25T16:05:13.613Z,101338.78
2022-08-25T16:07:40.928Z,101331.00
2022-08-25T16:10:07.746Z,101330.81
2022-08-25T16:12:34.411Z,101333.38
2022-08-25T16:15:01.625Z,101337.75
2022-08-25T16:17:28.119Z,101335.38
2022-08-25T16:19:54.542Z,101341.03
2022-08-25T16:22:20.982Z,101349.75
2022-08-25T16:24:47.894Z,101351.00
2022-08-25T16:27:15.021Z,101349.25
2022-08-25T16:29:43.768Z,101353.06
2022-08-25T16:32:13.354Z,101351.38
2022-08-25T16:34:41.335Z,101346.41
2022-08-25T16:37:08.542Z,101344.34
2022-08-25T16:39:35.818Z,101348.31
2022-08-25T16:42:02.262Z,101347.06
2022-08-25T16:44:28.718Z,101351.28
2022-08-25T16:46:55.388Z,101354.44
2022-08-25T16:49:24.533Z,101345.19
2022-08-25T16:51:57.048Z,101339.75
2022-08-25T16:54:44.000Z,101335.13
2022-08-25T16:57:10.719Z,101344.34
2022-08-25T16:59:37.176Z,101339.63
2022-08-25T17:02:03.936Z,101340.25
2022-08-25T17:04:32.494Z,101340.63
2022-08-25T17:06:59.606Z,101341.75
2022-08-25T17:09:26.043Z,101341.47
2022-08-25T17:11:56.500Z,101342.03
2022-08-25T17:14:22.927Z,101349.63
2022-08-25T17:16:51.106Z,101343.19
2022-08-25T17:19:17.948Z,101345.88
2022-08-25T17:21:50.000Z,101336.88
2022-08-25T17:24:17.081Z,101333.03
2022-08-25T17:26:46.260Z,101328.63
2022-08-25T17:29:12.808Z,101342.16
2022-08-25T17:31:40.016Z,101349.94
2022-08-25T17:34:12.833Z,101347.03
2022-08-25T17:36:43.530Z,101355.44
2022-08-25T17:39:12.577Z,101351.84
2022-08-25T17:41:39.589Z,101354.63
2022-08-25T17:44:07.355Z,101362.41
2022-08-25T17:46:33.936Z,101366.03
2022-08-25T17:49:00.582Z,101364.97
2022-08-25T17:51:29.764Z,101371.94
2022-08-25T17:53:58.477Z,101374.16
2022-08-25T17:56:27.340Z,101367.38
2022-08-25T17:58:55.204Z,101379.09
2022-08-25T18:01:25.832Z,101371.63
2022-08-25T18:03:53.783Z,101373.66
2022-08-25T18:06:21.125Z,101370.16
2022-08-25T18:08:51.667Z,101364.44
2022-08-25T18:11:20.814Z,101376.63
2022-08-25T18:13:47.321Z,101370.84
2022-08-25T18:16:16.882Z,101371.72
2022-08-25T18:18:44.389Z,101376.50
2022-08-25T18:21:16.614Z,101375.13
2022-08-25T18:23:43.539Z,101377.06
2022-08-25T18:26:13.110Z,101383.69
2022-08-25T18:28:40.295Z,101396.38
2022-08-25T18:31:11.983Z,101390.91
2022-08-25T18:33:41.725Z,101392.06
2022-08-25T18:36:09.111Z,101400.13
2022-08-25T18:38:58.120Z,101403.50
2022-08-25T18:41:26.308Z,101402.50
2022-08-25T18:43:53.301Z,101413.88
2022-08-25T18:46:22.523Z,101415.25
2022-08-25T18:48:49.693Z,101416.94
2022-08-25T18:51:19.508Z,101417.56
2022-08-25T18:53:51.126Z,101432.47
2022-08-25T18:56:22.344Z,101430.56
2022-08-25T18:58:48.801Z,101434.41
2022-08-25T19:01:16.828Z,101432.50
2022-08-25T19:03:44.637Z,101431.69
2022-08-25T19:06:11.133Z,101440.22
2022-08-25T19:08:40.028Z,101439.72
2022-08-25T19:11:09.640Z,101438.06
2022-08-25T19:13:36.698Z,101433.66
2022-08-25T19:16:17.700Z,101431.75
2022-08-25T19:18:48.749Z,101437.53
2022-08-25T19:21:15.555Z,101445.53
2022-08-25T19:23:41.942Z,101445.53
2022-08-25T19:26:17.133Z,101448.00
2022-08-25T19:28:48.595Z,101449.38
2022-08-25T19:31:15.299Z,101447.19
2022-08-25T19:33:45.098Z,101452.97
2022-08-25T19:36:11.921Z,101456.00
2022-08-25T19:38:39.288Z,101456.81
2022-08-25T19:41:10.524Z,101465.34
2022-08-25T19:43:41.443Z,101471.69
2022-08-25T19:46:23.276Z,101479.41
2022-08-25T19:48:49.745Z,101479.97
2022-08-25T19:51:17.036Z,101466.47
2022-08-25T19:53:46.230Z,101469.75
2022-08-25T19:56:20.074Z,101464.78
2022-08-25T19:58:46.501Z,101463.16
2022-08-25T20:01:14.005Z,101473.63
2022-08-25T20:03:44.971Z,101480.22
2022-08-25T20:06:12.004Z,101489.84
2022-08-25T20:08:42.523Z,101493.97
2022-08-25T20:11:08.929Z,101494.50
2022-08-25T20:13:35.389Z,101492.88
2022-08-25T20:16:02.410Z,101487.34
2022-08-25T20:18:28.846Z,101493.13
2022-08-25T20:20:55.976Z,101487.91
2022-08-25T20:23:41.770Z,101498.88
2022-08-25T20:26:08.965Z,101497.72
2022-08-25T20:28:35.418Z,101501.28
2022-08-25T20:31:02.180Z,101501.56
2022-08-25T20:33:29.005Z,101499.06
2022-08-25T20:35:55.497Z,101499.59
2022-08-25T20:38:22.561Z,101502.09
2022-08-25T20:40:49.349Z,101505.09
2022-08-25T20:43:15.863Z,101516.59
2022-08-25T20:45:42.342Z,101517.66
2022-08-25T20:48:09.520Z,101513.50
2022-08-25T20:50:38.702Z,101517.84
2022-08-25T20:53:05.642Z,101524.97
2022-08-25T20:55:42.535Z,101525.25
2022-08-25T20:58:10.371Z,101523.84
2022-08-25T21:00:36.839Z,101524.13
2022-08-25T21:03:03.269Z,101522.19
2022-08-25T21:05:29.689Z,101524.38
2022-08-25T21:07:56.111Z,101533.19
2022-08-25T21:10:23.378Z,101532.25
2022-08-25T21:12:53.373Z,101535.28
2022-08-25T21:15:20.333Z,101533.56
2022-08-25T21:17:53.090Z,101532.44
2022-08-25T21:20:23.657Z,101537.38
2022-08-25T21:22:51.194Z,101525.00
2022-08-25T21:25:20.298Z,101536.25
2022-08-25T21:27:47.992Z,101537.78
2022-08-25T21:30:16.178Z,101535.84
2022-08-25T21:32:52.909Z,101550.47
2022-08-25T21:35:20.641Z,101542.28
2022-08-25T21:37:53.265Z,101547.19
2022-08-25T21:40:21.615Z,101545.19
2022-08-25T21:42:48.777Z,101545.97
2022-08-25T21:45:15.319Z,101553.16
2022-08-25T21:47:42.542Z,101557.63
2022-08-25T21:50:11.585Z,101552.75
2022-08-25T21:52:38.286Z,101555.81
2022-08-25T21:55:08.101Z,101553.59
2022-08-25T21:57:42.827Z,101555.53
2022-08-25T22:00:11.537Z,101557.63
2022-08-25T22:02:38.583Z,101559.00
2022-08-25T22:05:09.258Z,101557.84
2022-08-25T22:07:41.600Z,101558.09
2022-08-25T22:10:09.380Z,101558.09
2022-08-25T22:12:43.460Z,101552.50
2022-08-25T22:15:13.683Z,101567.91
2022-08-25T22:17:40.564Z,101561.81
2022-08-25T22:20:08.489Z,101562.91
2022-08-25T22:22:35.540Z,101565.09
2022-08-25T22:25:02.398Z,101562.28
2022-08-25T22:27:31.588Z,101567.25
2022-08-25T22:29:58.733Z,101563.38
2022-08-25T22:32:25.485Z,101565.25
2022-08-25T22:34:52.480Z,101578.16
2022-08-25T22:37:18.933Z,101572.09
2022-08-25T22:39:46.257Z,101575.06
2022-08-25T22:42:12.777Z,101575.88
2022-08-25T22:44:40.349Z,101572.63
2022-08-25T22:47:07.393Z,101568.69
2022-08-25T22:49:35.361Z,101579.06
2022-08-25T22:52:02.021Z,101577.38
2022-08-25T22:54:28.443Z,101581.44
2022-08-25T22:56:54.881Z,101587.91
2022-08-25T22:59:22.213Z,101584.00
2022-08-25T23:01:49.553Z,101579.88
2022-08-25T23:04:16.047Z,101591.28
2022-08-25T23:06:45.736Z,101586.88
2022-08-25T23:09:13.573Z,101578.38
2022-08-25T23:11:40.617Z,101583.88
2022-08-25T23:14:10.147Z,101589.41
2022-08-25T23:16:41.754Z,101593.84
2022-08-25T23:19:10.048Z,101592.06
2022-08-25T23:21:56.895Z,101595.31
2022-08-25T23:24:29.527Z,101597.41
2022-08-25T23:26:58.181Z,101596.69
2022-08-25T23:29:24.570Z,101595.53
2022-08-25T23:31:51.756Z,101587.97
2022-08-25T23:34:20.114Z,101585.81
2022-08-25T23:36:46.544Z,101594.06
2022-08-25T23:39:12.982Z,101589.63
2022-08-25T23:41:39.973Z,101591.50
2022-08-25T23:44:06.456Z,101587.94
2022-08-25T23:46:35.676Z,101593.78
2022-08-25T23:49:03.962Z,101592.69
2022-08-25T23:51:37.129Z,101580.91
2022-08-25T23:54:06.993Z,101583.91
2022-08-25T23:56:37.288Z,101584.72
2022-08-25T23:59:10.601Z,101596.84
